sensor_id;sensor_type;location;lat;lon;timestamp;temperature;humidity
73688;SHT30;62257;48.376;-4.378;2022-12-17T00:00:22;2.83;76.39
73688;SHT30;62257;48.376;-4.378;2022-12-17T00:03:09;2.76;76.47
73688;SHT30;62257;48.376;-4.378;2022-12-17T00:05:52;2.72;76.65
73688;SHT30;62257;48.376;-4.378;2022-12-17T00:08:36;2.62;76.69
73688;SHT30;62257;48.376;-4.378;2022-12-17T00:11:20;2.59;76.85
73688;SHT30;62257;48.376;-4.378;2022-12-17T00:14:04;2.56;76.93
73688;SHT30;62257;48.376;-4.378;2022-12-17T00:16:48;2.49;76.97
73688;SHT30;62257;48.376;-4.378;2022-12-17T00:19:32;2.46;77.03
73688;SHT30;62257;48.376;-4.378;2022-12-17T00:22:16;2.41;77.19
73688;SHT30;62257;48.376;-4.378;2022-12-17T00:25:00;2.39;77.21
73688;SHT30;62257;48.376;-4.378;2022-12-17T00:27:44;2.39;77.29
73688;SHT30;62257;48.376;-4.378;2022-12-17T00:30:28;2.37;77.22
73688;SHT30;62257;48.376;-4.378;2022-12-17T00:33:12;2.35;77.32
73688;SHT30;62257;48.376;-4.378;2022-12-17T00:35:55;2.32;77.36
73688;SHT30;62257;48.376;-4.378;2022-12-17T00:38:39;2.28;77.51
73688;SHT30;62257;48.376;-4.378;2022-12-17T00:41:23;2.27;77.63
73688;SHT30;62257;48.376;-4.378;2022-12-17T00:44:07;2.21;77.70
73688;SHT30;62257;48.376;-4.378;2022-12-17T00:46:52;2.20;77.74
73688;SHT30;62257;48.376;-4.378;2022-12-17T00:49:35;2.20;77.78
73688;SHT30;62257;48.376;-4.378;2022-12-17T00:52:19;2.18;77.98
73688;SHT30;62257;48.376;-4.378;2022-12-17T00:55:03;2.15;78.09
73688;SHT30;62257;48.376;-4.378;2022-12-17T00:57:53;2.17;78.20
73688;SHT30;62257;48.376;-4.378;2022-12-17T01:00:37;2.14;78.33
73688;SHT30;62257;48.376;-4.378;2022-12-17T01:03:21;2.17;78.44
73688;SHT30;62257;48.376;-4.378;2022-12-17T01:06:05;2.20;78.49
73688;SHT30;62257;48.376;-4.378;2022-12-17T01:08:49;2.20;78.33
73688;SHT30;62257;48.376;-4.378;2022-12-17T01:11:33;2.22;78.21
73688;SHT30;62257;48.376;-4.378;2022-12-17T01:14:17;2.24;78.43
73688;SHT30;62257;48.376;-4.378;2022-12-17T01:17:05;2.24;78.28
73688;SHT30;62257;48.376;-4.378;2022-12-17T01:19:49;2.25;78.06
73688;SHT30;62257;48.376;-4.378;2022-12-17T01:22:34;2.28;78.05
73688;SHT30;62257;48.376;-4.378;2022-12-17T01:25:18;2.32;77.87
73688;SHT30;62257;48.376;-4.378;2022-12-17T01:28:02;2.29;78.12
73688;SHT30;62257;48.376;-4.378;2022-12-17T01:30:46;2.28;77.97
73688;SHT30;62257;48.376;-4.378;2022-12-17T01:33:30;2.32;78.17
73688;SHT30;62257;48.376;-4.378;2022-12-17T01:36:14;2.31;78.27
73688;SHT30;62257;48.376;-4.378;2022-12-17T01:38:59;2.34;77.91
73688;SHT30;62257;48.376;-4.378;2022-12-17T01:41:43;2.31;78.15
73688;SHT30;62257;48.376;-4.378;2022-12-17T01:44:46;2.32;77.97
73688;SHT30;62257;48.376;-4.378;2022-12-17T01:47:45;2.32;78.20
73688;SHT30;62257;48.376;-4.378;2022-12-17T01:50:43;2.35;78.20
73688;SHT30;62257;48.376;-4.378;2022-12-17T01:53:30;2.35;78.12
73688;SHT30;62257;48.376;-4.378;2022-12-17T01:56:15;2.34;78.22
73688;SHT30;62257;48.376;-4.378;2022-12-17T01:59:00;2.32;78.09
73688;SHT30;62257;48.376;-4.378;2022-12-17T02:01:45;2.29;78.18
73688;SHT30;62257;48.376;-4.378;2022-12-17T02:04:29;2.32;78.13
73688;SHT30;62257;48.376;-4.378;2022-12-17T02:10:04;2.27;78.18
73688;SHT30;62257;48.376;-4.378;2022-12-17T02:12:55;2.21;78.20
73688;SHT30;62257;48.376;-4.378;2022-12-17T02:15:59;2.18;78.42
73688;SHT30;62257;48.376;-4.378;2022-12-17T02:18:57;2.15;78.56
73688;SHT30;62257;48.376;-4.378;2022-12-17T02:21:44;2.08;78.52
73688;SHT30;62257;48.376;-4.378;2022-12-17T02:24:54;2.06;78.57
73688;SHT30;62257;48.376;-4.378;2022-12-17T02:27:41;2.01;78.51
73688;SHT30;62257;48.376;-4.378;2022-12-17T02:30:25;2.01;78.79
73688;SHT30;62257;48.376;-4.378;2022-12-17T02:33:10;1.97;78.77
73688;SHT30;62257;48.376;-4.378;2022-12-17T02:36:02;1.90;78.87
73688;SHT30;62257;48.376;-4.378;2022-12-17T02:38:47;1.91;78.96
73688;SHT30;62257;48.376;-4.378;2022-12-17T02:41:38;1.87;79.10
73688;SHT30;62257;48.376;-4.378;2022-12-17T02:44:24;1.89;79.13
73688;SHT30;62257;48.376;-4.378;2022-12-17T02:47:09;1.86;79.28
73688;SHT30;62257;48.376;-4.378;2022-12-17T02:49:54;1.84;79.29
73688;SHT30;62257;48.376;-4.378;2022-12-17T02:52:40;1.84;79.24
73688;SHT30;62257;48.376;-4.378;2022-12-17T02:55:25;1.80;79.30
73688;SHT30;62257;48.376;-4.378;2022-12-17T02:58:09;1.81;79.44
73688;SHT30;62257;48.376;-4.378;2022-12-17T03:00:53;1.84;79.49
73688;SHT30;62257;48.376;-4.378;2022-12-17T03:03:37;1.86;79.41
73688;SHT30;62257;48.376;-4.378;2022-12-17T03:06:21;1.86;79.46
73688;SHT30;62257;48.376;-4.378;2022-12-17T03:09:05;1.86;79.42
73688;SHT30;62257;48.376;-4.378;2022-12-17T03:11:49;1.86;79.33
73688;SHT30;62257;48.376;-4.378;2022-12-17T03:14:33;1.87;79.44
73688;SHT30;62257;48.376;-4.378;2022-12-17T03:17:17;1.87;79.47
73688;SHT30;62257;48.376;-4.378;2022-12-17T03:20:01;1.87;79.38
73688;SHT30;62257;48.376;-4.378;2022-12-17T03:22:45;1.90;79.40
73688;SHT30;62257;48.376;-4.378;2022-12-17T03:25:30;1.89;79.41
73688;SHT30;62257;48.376;-4.378;2022-12-17T03:28:13;1.87;79.47
73688;SHT30;62257;48.376;-4.378;2022-12-17T03:30:58;1.87;79.48
73688;SHT30;62257;48.376;-4.378;2022-12-17T03:33:42;1.84;79.51
73688;SHT30;62257;48.376;-4.378;2022-12-17T03:36:28;1.81;79.35
73688;SHT30;62257;48.376;-4.378;2022-12-17T03:39:12;1.81;79.17
73688;SHT30;62257;48.376;-4.378;2022-12-17T03:41:56;1.76;79.20
73688;SHT30;62257;48.376;-4.378;2022-12-17T03:44:40;1.73;79.38
73688;SHT30;62257;48.376;-4.378;2022-12-17T03:47:24;1.70;79.30
73688;SHT30;62257;48.376;-4.378;2022-12-17T03:50:08;1.69;79.46
73688;SHT30;62257;48.376;-4.378;2022-12-17T03:52:52;1.69;79.62
73688;SHT30;62257;48.376;-4.378;2022-12-17T03:55:36;1.69;79.65
73688;SHT30;62257;48.376;-4.378;2022-12-17T03:58:20;1.67;79.64
73688;SHT30;62257;48.376;-4.378;2022-12-17T04:01:04;1.69;79.68
73688;SHT30;62257;48.376;-4.378;2022-12-17T04:03:48;1.66;79.58
73688;SHT30;62257;48.376;-4.378;2022-12-17T04:06:32;1.66;79.44
73688;SHT30;62257;48.376;-4.378;2022-12-17T04:09:16;1.63;79.62
73688;SHT30;62257;48.376;-4.378;2022-12-17T04:12:00;1.63;79.56
73688;SHT30;62257;48.376;-4.378;2022-12-17T04:14:44;1.63;79.74
73688;SHT30;62257;48.376;-4.378;2022-12-17T04:17:28;1.60;79.73
73688;SHT30;62257;48.376;-4.378;2022-12-17T04:20:12;1.59;79.68
73688;SHT30;62257;48.376;-4.378;2022-12-17T04:22:56;1.56;79.68
73688;SHT30;62257;48.376;-4.378;2022-12-17T04:25:39;1.59;79.71
73688;SHT30;62257;48.376;-4.378;2022-12-17T04:28:23;1.56;79.80
73688;SHT30;62257;48.376;-4.378;2022-12-17T04:31:07;1.51;79.66
73688;SHT30;62257;48.376;-4.378;2022-12-17T04:33:51;1.51;79.91
73688;SHT30;62257;48.376;-4.378;2022-12-17T04:36:35;1.49;79.75
73688;SHT30;62257;48.376;-4.378;2022-12-17T04:39:19;1.49;79.91
73688;SHT30;62257;48.376;-4.378;2022-12-17T04:42:03;1.48;79.80
73688;SHT30;62257;48.376;-4.378;2022-12-17T04:44:47;1.46;80.02
73688;SHT30;62257;48.376;-4.378;2022-12-17T04:47:31;1.42;80.02
73688;SHT30;62257;48.376;-4.378;2022-12-17T04:50:15;1.43;79.70
73688;SHT30;62257;48.376;-4.378;2022-12-17T04:53:03;1.42;79.81
73688;SHT30;62257;48.376;-4.378;2022-12-17T04:55:48;1.39;79.52
73688;SHT30;62257;48.376;-4.378;2022-12-17T04:58:32;1.41;79.53
73688;SHT30;62257;48.376;-4.378;2022-12-17T05:01:25;1.42;79.48
73688;SHT30;62257;48.376;-4.378;2022-12-17T05:04:09;1.41;79.44
73688;SHT30;62257;48.376;-4.378;2022-12-17T05:06:52;1.39;79.49
73688;SHT30;62257;48.376;-4.378;2022-12-17T05:09:36;1.38;79.40
73688;SHT30;62257;48.376;-4.378;2022-12-17T05:12:20;1.32;79.22
73688;SHT30;62257;48.376;-4.378;2022-12-17T05:15:05;1.34;79.36
73688;SHT30;62257;48.376;-4.378;2022-12-17T05:17:49;1.31;79.42
73688;SHT30;62257;48.376;-4.378;2022-12-17T05:20:32;1.30;79.69
73688;SHT30;62257;48.376;-4.378;2022-12-17T05:23:16;1.30;79.64
73688;SHT30;62257;48.376;-4.378;2022-12-17T05:26:06;1.28;79.49
73688;SHT30;62257;48.376;-4.378;2022-12-17T05:28:51;1.25;79.56
73688;SHT30;62257;48.376;-4.378;2022-12-17T05:31:35;1.24;79.36
73688;SHT30;62257;48.376;-4.378;2022-12-17T05:34:19;1.25;79.50
73688;SHT30;62257;48.376;-4.378;2022-12-17T05:37:02;1.27;79.40
73688;SHT30;62257;48.376;-4.378;2022-12-17T05:39:46;1.27;79.17
73688;SHT30;62257;48.376;-4.378;2022-12-17T05:42:30;1.28;79.19
73688;SHT30;62257;48.376;-4.378;2022-12-17T05:45:14;1.30;79.06
73688;SHT30;62257;48.376;-4.378;2022-12-17T05:47:58;1.27;79.25
73688;SHT30;62257;48.376;-4.378;2022-12-17T05:50:48;1.28;79.09
73688;SHT30;62257;48.376;-4.378;2022-12-17T05:53:32;1.28;79.04
73688;SHT30;62257;48.376;-4.378;2022-12-17T05:56:16;1.25;79.02
73688;SHT30;62257;48.376;-4.378;2022-12-17T05:59:00;1.28;78.83
73688;SHT30;62257;48.376;-4.378;2022-12-17T06:01:44;1.27;79.00
73688;SHT30;62257;48.376;-4.378;2022-12-17T06:04:28;1.28;79.03
73688;SHT30;62257;48.376;-4.378;2022-12-17T06:07:12;1.27;79.04
73688;SHT30;62257;48.376;-4.378;2022-12-17T06:09:56;1.24;78.92
73688;SHT30;62257;48.376;-4.378;2022-12-17T06:12:40;1.25;78.95
73688;SHT30;62257;48.376;-4.378;2022-12-17T06:15:24;1.22;78.66
73688;SHT30;62257;48.376;-4.378;2022-12-17T06:18:08;1.22;78.71
73688;SHT30;62257;48.376;-4.378;2022-12-17T06:20:51;1.21;78.54
73688;SHT30;62257;48.376;-4.378;2022-12-17T06:23:35;1.21;78.57
73688;SHT30;62257;48.376;-4.378;2022-12-17T06:26:19;1.18;78.75
73688;SHT30;62257;48.376;-4.378;2022-12-17T06:29:03;1.18;78.66
73688;SHT30;62257;48.376;-4.378;2022-12-17T06:31:47;1.15;78.61
73688;SHT30;62257;48.376;-4.378;2022-12-17T06:34:33;1.14;78.66
73688;SHT30;62257;48.376;-4.378;2022-12-17T06:37:17;1.09;78.81
73688;SHT30;62257;48.376;-4.378;2022-12-17T06:40:01;1.08;78.83
73688;SHT30;62257;48.376;-4.378;2022-12-17T06:42:55;1.03;78.83
73688;SHT30;62257;48.376;-4.378;2022-12-17T06:45:39;1.00;78.93
73688;SHT30;62257;48.376;-4.378;2022-12-17T06:48:23;1.00;79.02
73688;SHT30;62257;48.376;-4.378;2022-12-17T06:51:07;0.95;78.81
73688;SHT30;62257;48.376;-4.378;2022-12-17T06:53:51;0.91;78.74
73688;SHT30;62257;48.376;-4.378;2022-12-17T06:56:35;0.88;78.88
73688;SHT30;62257;48.376;-4.378;2022-12-17T06:59:19;0.90;78.88
73688;SHT30;62257;48.376;-4.378;2022-12-17T07:02:03;0.88;78.96
73688;SHT30;62257;48.376;-4.378;2022-12-17T07:04:47;0.86;79.09
73688;SHT30;62257;48.376;-4.378;2022-12-17T07:07:30;0.86;79.02
73688;SHT30;62257;48.376;-4.378;2022-12-17T07:10:14;0.87;79.17
73688;SHT30;62257;48.376;-4.378;2022-12-17T07:13:05;0.88;79.15
73688;SHT30;62257;48.376;-4.378;2022-12-17T07:15:50;0.87;79.19
73688;SHT30;62257;48.376;-4.378;2022-12-17T07:18:34;0.90;79.23
73688;SHT30;62257;48.376;-4.378;2022-12-17T07:21:18;0.94;79.25
73688;SHT30;62257;48.376;-4.378;2022-12-17T07:24:02;0.95;79.02
73688;SHT30;62257;48.376;-4.378;2022-12-17T07:26:46;0.95;79.28
73688;SHT30;62257;48.376;-4.378;2022-12-17T07:29:29;1.00;79.08
73688;SHT30;62257;48.376;-4.378;2022-12-17T07:32:18;1.00;78.94
73688;SHT30;62257;48.376;-4.378;2022-12-17T07:35:02;1.03;79.05
73688;SHT30;62257;48.376;-4.378;2022-12-17T07:37:46;1.07;79.08
73688;SHT30;62257;48.376;-4.378;2022-12-17T07:40:30;1.08;78.67
73688;SHT30;62257;48.376;-4.378;2022-12-17T07:43:14;1.08;78.67
73688;SHT30;62257;48.376;-4.378;2022-12-17T07:45:59;1.14;78.46
73688;SHT30;62257;48.376;-4.378;2022-12-17T07:48:43;1.14;78.35
73688;SHT30;62257;48.376;-4.378;2022-12-17T07:51:27;1.18;77.82
73688;SHT30;62257;48.376;-4.378;2022-12-17T07:54:10;1.20;77.71
73688;SHT30;62257;48.376;-4.378;2022-12-17T07:56:54;1.20;77.85
73688;SHT30;62257;48.376;-4.378;2022-12-17T07:59:40;1.20;77.81
73688;SHT30;62257;48.376;-4.378;2022-12-17T08:02:24;1.17;77.82
73688;SHT30;62257;48.376;-4.378;2022-12-17T08:05:08;1.17;78.01
73688;SHT30;62257;48.376;-4.378;2022-12-17T08:07:52;1.15;78.03
73688;SHT30;62257;48.376;-4.378;2022-12-17T08:10:36;1.15;77.84
73688;SHT30;62257;48.376;-4.378;2022-12-17T08:13:20;1.14;78.05
73688;SHT30;62257;48.376;-4.378;2022-12-17T08:16:04;1.11;78.18
73688;SHT30;62257;48.376;-4.378;2022-12-17T08:19:02;1.09;78.10
73688;SHT30;62257;48.376;-4.378;2022-12-17T08:21:46;1.07;77.94
73688;SHT30;62257;48.376;-4.378;2022-12-17T08:24:30;1.07;78.05
73688;SHT30;62257;48.376;-4.378;2022-12-17T08:27:14;1.08;78.25
73688;SHT30;62257;48.376;-4.378;2022-12-17T08:29:58;1.07;78.10
73688;SHT30;62257;48.376;-4.378;2022-12-17T08:32:42;1.08;78.01
73688;SHT30;62257;48.376;-4.378;2022-12-17T08:35:26;1.11;78.02
73688;SHT30;62257;48.376;-4.378;2022-12-17T08:38:10;1.13;77.60
73688;SHT30;62257;48.376;-4.378;2022-12-17T08:40:54;1.13;77.69
73688;SHT30;62257;48.376;-4.378;2022-12-17T08:43:38;1.15;77.42
73688;SHT30;62257;48.376;-4.378;2022-12-17T08:46:22;1.15;77.40
73688;SHT30;62257;48.376;-4.378;2022-12-17T08:49:05;1.17;77.38
73688;SHT30;62257;48.376;-4.378;2022-12-17T08:51:49;1.15;76.96
73688;SHT30;62257;48.376;-4.378;2022-12-17T08:54:33;1.17;77.18
73688;SHT30;62257;48.376;-4.378;2022-12-17T08:57:17;1.17;77.18
73688;SHT30;62257;48.376;-4.378;2022-12-17T09:00:01;1.14;77.11
73688;SHT30;62257;48.376;-4.378;2022-12-17T09:02:45;1.11;77.11
73688;SHT30;62257;48.376;-4.378;2022-12-17T09:05:29;1.08;76.87
73688;SHT30;62257;48.376;-4.378;2022-12-17T09:08:13;1.07;77.09
73688;SHT30;62257;48.376;-4.378;2022-12-17T09:10:58;1.04;77.35
73688;SHT30;62257;48.376;-4.378;2022-12-17T09:13:43;1.01;77.09
73688;SHT30;62257;48.376;-4.378;2022-12-17T09:16:27;1.00;77.47
73688;SHT30;62257;48.376;-4.378;2022-12-17T09:19:10;1.00;77.47
73688;SHT30;62257;48.376;-4.378;2022-12-17T09:21:54;0.97;77.67
73688;SHT30;62257;48.376;-4.378;2022-12-17T09:24:38;1.00;77.89
73688;SHT30;62257;48.376;-4.378;2022-12-17T09:27:22;1.00;77.98
73688;SHT30;62257;48.376;-4.378;2022-12-17T09:30:06;1.00;77.74
73688;SHT30;62257;48.376;-4.378;2022-12-17T09:32:50;1.05;77.63
73688;SHT30;62257;48.376;-4.378;2022-12-17T09:35:37;1.09;77.36
73688;SHT30;62257;48.376;-4.378;2022-12-17T09:38:21;1.14;76.56
73688;SHT30;62257;48.376;-4.378;2022-12-17T09:42:01;1.18;76.54
73688;SHT30;62257;48.376;-4.378;2022-12-17T09:50:18;1.28;76.16
73688;SHT30;62257;48.376;-4.378;2022-12-17T09:56:03;1.36;76.39
73688;SHT30;62257;48.376;-4.378;2022-12-17T09:58:47;1.35;76.64
73688;SHT30;62257;48.376;-4.378;2022-12-17T10:01:33;1.38;76.30
73688;SHT30;62257;48.376;-4.378;2022-12-17T10:04:32;1.41;76.22
73688;SHT30;62257;48.376;-4.378;2022-12-17T10:07:22;1.42;76.44
73688;SHT30;62257;48.376;-4.378;2022-12-17T10:10:18;1.45;76.08
73688;SHT30;62257;48.376;-4.378;2022-12-17T10:13:10;1.49;75.86
73688;SHT30;62257;48.376;-4.378;2022-12-17T10:15:54;1.53;75.56
73688;SHT30;62257;48.376;-4.378;2022-12-17T10:18:38;1.55;76.12
73688;SHT30;62257;48.376;-4.378;2022-12-17T10:21:22;1.58;75.34
73688;SHT30;62257;48.376;-4.378;2022-12-17T10:24:08;1.62;75.59
73688;SHT30;62257;48.376;-4.378;2022-12-17T10:26:52;1.66;75.39
73688;SHT30;62257;48.376;-4.378;2022-12-17T10:29:36;1.67;75.72
73688;SHT30;62257;48.376;-4.378;2022-12-17T10:32:23;1.70;75.14
73688;SHT30;62257;48.376;-4.378;2022-12-17T10:35:26;1.73;75.47
73688;SHT30;62257;48.376;-4.378;2022-12-17T10:38:22;1.76;75.52
73688;SHT30;62257;48.376;-4.378;2022-12-17T10:41:28;1.76;75.34
73688;SHT30;62257;48.376;-4.378;2022-12-17T10:44:29;1.80;74.63
73688;SHT30;62257;48.376;-4.378;2022-12-17T10:47:16;1.81;74.57
73688;SHT30;62257;48.376;-4.378;2022-12-17T10:50:05;1.83;75.17
73688;SHT30;62257;48.376;-4.378;2022-12-17T10:52:51;1.86;75.11
73688;SHT30;62257;48.376;-4.378;2022-12-17T10:55:35;1.89;74.46
73688;SHT30;62257;48.376;-4.378;2022-12-17T10:58:24;1.91;74.58
73688;SHT30;62257;48.376;-4.378;2022-12-17T11:01:18;1.91;74.74
73688;SHT30;62257;48.376;-4.378;2022-12-17T11:04:21;1.97;74.47
73688;SHT30;62257;48.376;-4.378;2022-12-17T11:07:08;1.97;75.10
73688;SHT30;62257;48.376;-4.378;2022-12-17T11:09:55;2.00;75.06
73688;SHT30;62257;48.376;-4.378;2022-12-17T11:12:50;2.03;74.77
73688;SHT30;62257;48.376;-4.378;2022-12-17T11:15:48;2.01;74.71
73688;SHT30;62257;48.376;-4.378;2022-12-17T11:21:56;2.07;73.44
73688;SHT30;62257;48.376;-4.378;2022-12-17T11:27:43;2.11;73.77
73688;SHT30;62257;48.376;-4.378;2022-12-17T11:30:28;2.14;73.14
73688;SHT30;62257;48.376;-4.378;2022-12-17T11:33:24;2.13;72.62
73688;SHT30;62257;48.376;-4.378;2022-12-17T11:36:26;2.18;73.27
73688;SHT30;62257;48.376;-4.378;2022-12-17T11:45:05;2.24;73.13
73688;SHT30;62257;48.376;-4.378;2022-12-17T11:51:31;2.27;72.57
73688;SHT30;62257;48.376;-4.378;2022-12-17T11:54:24;2.28;72.79
73688;SHT30;62257;48.376;-4.378;2022-12-17T11:57:19;2.32;72.55
73688;SHT30;62257;48.376;-4.378;2022-12-17T12:00:14;2.37;71.52
73688;SHT30;62257;48.376;-4.378;2022-12-17T12:03:23;2.37;72.40
73688;SHT30;62257;48.376;-4.378;2022-12-17T12:09:58;2.44;72.07
73688;SHT30;62257;48.376;-4.378;2022-12-17T12:15:25;2.45;71.33
73688;SHT30;62257;48.376;-4.378;2022-12-17T12:36:29;2.65;72.46
73688;SHT30;62257;48.376;-4.378;2022-12-17T12:39:21;2.69;71.53
73688;SHT30;62257;48.376;-4.378;2022-12-17T12:42:37;2.69;72.20
73688;SHT30;62257;48.376;-4.378;2022-12-17T12:45:53;2.69;71.46
73688;SHT30;62257;48.376;-4.378;2022-12-17T12:51:26;2.73;71.84
73688;SHT30;62257;48.376;-4.378;2022-12-17T12:57:32;2.75;70.99
73688;SHT30;62257;48.376;-4.378;2022-12-17T13:06:11;2.93;71.42
73688;SHT30;62257;48.376;-4.378;2022-12-17T13:08:38;3.01;71.32
73688;SHT30;62257;48.376;-4.378;2022-12-17T13:12:07;3.13;71.35
73688;SHT30;62257;48.376;-4.378;2022-12-17T13:14:00;3.30;69.85
73688;SHT30;62257;48.376;-4.378;2022-12-17T13:16:56;3.39;69.70
73688;SHT30;62257;48.376;-4.378;2022-12-17T13:21:56;3.79;66.31
73688;SHT30;62257;48.376;-4.378;2022-12-17T13:24:23;4.00;65.97
73688;SHT30;62257;48.376;-4.378;2022-12-17T13:26:49;4.20;65.49
73688;SHT30;62257;48.376;-4.378;2022-12-17T13:42:52;4.92;62.08
73688;SHT30;62257;48.376;-4.378;2022-12-17T13:45:22;4.92;62.30
73688;SHT30;62257;48.376;-4.378;2022-12-17T13:47:55;4.99;61.21
73688;SHT30;62257;48.376;-4.378;2022-12-17T13:50:28;5.04;60.79
73688;SHT30;62257;48.376;-4.378;2022-12-17T13:52:54;5.06;61.74
73688;SHT30;62257;48.376;-4.378;2022-12-17T13:55:24;5.06;62.29
73688;SHT30;62257;48.376;-4.378;2022-12-17T13:57:51;5.04;62.94
73688;SHT30;62257;48.376;-4.378;2022-12-17T14:00:22;4.99;62.73
73688;SHT30;62257;48.376;-4.378;2022-12-17T14:02:48;4.96;63.27
73688;SHT30;62257;48.376;-4.378;2022-12-17T14:05:29;4.93;63.56
73688;SHT30;62257;48.376;-4.378;2022-12-17T14:07:59;4.93;62.01
73688;SHT30;62257;48.376;-4.378;2022-12-17T14:10:25;4.93;63.32
73688;SHT30;62257;48.376;-4.378;2022-12-17T14:15:29;4.87;64.15
73688;SHT30;62257;48.376;-4.378;2022-12-17T14:17:56;4.89;62.24
73688;SHT30;62257;48.376;-4.378;2022-12-17T14:20:25;4.90;63.77
73688;SHT30;62257;48.376;-4.378;2022-12-17T14:23:04;4.90;63.60
73688;SHT30;62257;48.376;-4.378;2022-12-17T14:25:36;4.87;64.64
73688;SHT30;62257;48.376;-4.378;2022-12-17T14:30:38;4.83;64.57
73688;SHT30;62257;48.376;-4.378;2022-12-17T14:33:23;4.80;64.73
73688;SHT30;62257;48.376;-4.378;2022-12-17T14:35:51;4.83;64.13
73688;SHT30;62257;48.376;-4.378;2022-12-17T14:38:17;4.82;65.04
73688;SHT30;62257;48.376;-4.378;2022-12-17T14:40:43;4.84;63.00
73688;SHT30;62257;48.376;-4.378;2022-12-17T14:43:12;4.83;64.50
73688;SHT30;62257;48.376;-4.378;2022-12-17T14:45:38;4.80;65.05
73688;SHT30;62257;48.376;-4.378;2022-12-17T14:48:32;4.82;64.49
73688;SHT30;62257;48.376;-4.378;2022-12-17T14:51:27;4.80;64.63
73688;SHT30;62257;48.376;-4.378;2022-12-17T14:54:16;4.77;64.56
73688;SHT30;62257;48.376;-4.378;2022-12-17T14:56:43;4.77;64.35
73688;SHT30;62257;48.376;-4.378;2022-12-17T14:59:37;4.76;64.50
73688;SHT30;62257;48.376;-4.378;2022-12-17T15:02:22;4.72;63.88
73688;SHT30;62257;48.376;-4.378;2022-12-17T15:04:52;4.66;64.85
73688;SHT30;62257;48.376;-4.378;2022-12-17T15:07:26;4.63;64.40
73688;SHT30;62257;48.376;-4.378;2022-12-17T15:09:53;4.63;64.55
73688;SHT30;62257;48.376;-4.378;2022-12-17T15:12:19;4.59;64.81
73688;SHT30;62257;48.376;-4.378;2022-12-17T15:14:45;4.56;63.63
73688;SHT30;62257;48.376;-4.378;2022-12-17T15:17:11;4.56;64.91
73688;SHT30;62257;48.376;-4.378;2022-12-17T15:19:36;4.52;65.57
73688;SHT30;62257;48.376;-4.378;2022-12-17T15:22:02;4.52;65.41
73688;SHT30;62257;48.376;-4.378;2022-12-17T15:24:28;4.48;65.16
73688;SHT30;62257;48.376;-4.378;2022-12-17T15:26:53;4.46;65.62
73688;SHT30;62257;48.376;-4.378;2022-12-17T15:29:19;4.46;65.72
73688;SHT30;62257;48.376;-4.378;2022-12-17T15:31:44;4.45;65.47
73688;SHT30;62257;48.376;-4.378;2022-12-17T15:34:10;4.41;65.65
73688;SHT30;62257;48.376;-4.378;2022-12-17T15:36:36;4.38;65.60
73688;SHT30;62257;48.376;-4.378;2022-12-17T15:39:02;4.35;65.39
73688;SHT30;62257;48.376;-4.378;2022-12-17T15:41:30;4.31;65.39
73688;SHT30;62257;48.376;-4.378;2022-12-17T15:44:14;4.25;65.99
73688;SHT30;62257;48.376;-4.378;2022-12-17T15:46:39;4.22;66.45
73688;SHT30;62257;48.376;-4.378;2022-12-17T15:49:04;4.17;65.21
73688;SHT30;62257;48.376;-4.378;2022-12-17T15:51:30;4.11;65.23
73688;SHT30;62257;48.376;-4.378;2022-12-17T15:53:55;4.08;65.22
73688;SHT30;62257;48.376;-4.378;2022-12-17T15:56:23;4.04;66.03
73688;SHT30;62257;48.376;-4.378;2022-12-17T15:58:49;4.01;65.40
73688;SHT30;62257;48.376;-4.378;2022-12-17T16:01:15;3.96;64.05
73688;SHT30;62257;48.376;-4.378;2022-12-17T16:03:41;3.87;64.01
73688;SHT30;62257;48.376;-4.378;2022-12-17T16:06:07;3.87;66.36
73688;SHT30;62257;48.376;-4.378;2022-12-17T16:08:32;3.85;66.14
73688;SHT30;62257;48.376;-4.378;2022-12-17T16:10:58;3.80;66.48
73688;SHT30;62257;48.376;-4.378;2022-12-17T16:13:23;3.76;66.91
73688;SHT30;62257;48.376;-4.378;2022-12-17T16:15:56;3.73;67.13
73688;SHT30;62257;48.376;-4.378;2022-12-17T16:18:21;3.68;66.69
73688;SHT30;62257;48.376;-4.378;2022-12-17T16:20:48;3.63;67.92
73688;SHT30;62257;48.376;-4.378;2022-12-17T16:23:13;3.59;67.95
73688;SHT30;62257;48.376;-4.378;2022-12-17T16:25:39;3.55;68.00
73688;SHT30;62257;48.376;-4.378;2022-12-17T16:28:04;3.52;67.81
73688;SHT30;62257;48.376;-4.378;2022-12-17T16:30:30;3.49;68.48
73688;SHT30;62257;48.376;-4.378;2022-12-17T16:32:58;3.46;67.97
73688;SHT30;62257;48.376;-4.378;2022-12-17T16:35:25;3.42;67.98
73688;SHT30;62257;48.376;-4.378;2022-12-17T16:37:50;3.42;67.99
73688;SHT30;62257;48.376;-4.378;2022-12-17T16:40:16;3.38;68.10
73688;SHT30;62257;48.376;-4.378;2022-12-17T16:42:42;3.35;68.21
73688;SHT30;62257;48.376;-4.378;2022-12-17T16:45:08;3.28;68.38
73688;SHT30;62257;48.376;-4.378;2022-12-17T16:47:34;3.22;68.53
73688;SHT30;62257;48.376;-4.378;2022-12-17T16:50:00;3.18;68.92
73688;SHT30;62257;48.376;-4.378;2022-12-17T16:52:26;3.15;68.68
73688;SHT30;62257;48.376;-4.378;2022-12-17T16:54:52;3.11;68.91
73688;SHT30;62257;48.376;-4.378;2022-12-17T16:57:18;3.10;68.71
73688;SHT30;62257;48.376;-4.378;2022-12-17T16:59:43;3.13;68.63
73688;SHT30;62257;48.376;-4.378;2022-12-17T17:02:12;3.13;68.80
73688;SHT30;62257;48.376;-4.378;2022-12-17T17:04:38;3.17;69.19
73688;SHT30;62257;48.376;-4.378;2022-12-17T17:07:04;3.22;68.92
73688;SHT30;62257;48.376;-4.378;2022-12-17T17:09:30;3.22;68.13
73688;SHT30;62257;48.376;-4.378;2022-12-17T17:11:57;3.30;68.25
73688;SHT30;62257;48.376;-4.378;2022-12-17T17:14:24;3.34;68.35
73688;SHT30;62257;48.376;-4.378;2022-12-17T17:16:50;3.38;67.44
73688;SHT30;62257;48.376;-4.378;2022-12-17T17:19:17;3.42;68.02
73688;SHT30;62257;48.376;-4.378;2022-12-17T17:21:51;3.51;68.47
73688;SHT30;62257;48.376;-4.378;2022-12-17T17:24:19;3.54;68.58
73688;SHT30;62257;48.376;-4.378;2022-12-17T17:26:46;3.49;68.27
73688;SHT30;62257;48.376;-4.378;2022-12-17T17:29:11;3.48;68.02
73688;SHT30;62257;48.376;-4.378;2022-12-17T17:31:37;3.43;68.52
73688;SHT30;62257;48.376;-4.378;2022-12-17T17:34:10;3.38;68.41
73688;SHT30;62257;48.376;-4.378;2022-12-17T17:36:37;3.31;67.83
73688;SHT30;62257;48.376;-4.378;2022-12-17T17:39:03;3.25;68.93
73688;SHT30;62257;48.376;-4.378;2022-12-17T17:41:30;3.21;68.81
73688;SHT30;62257;48.376;-4.378;2022-12-17T17:43:59;3.17;68.87
73688;SHT30;62257;48.376;-4.378;2022-12-17T17:46:25;3.08;69.29
73688;SHT30;62257;48.376;-4.378;2022-12-17T17:48:51;3.01;69.29
73688;SHT30;62257;48.376;-4.378;2022-12-17T17:51:21;2.87;69.40
73688;SHT30;62257;48.376;-4.378;2022-12-17T17:53:49;2.82;69.99
73688;SHT30;62257;48.376;-4.378;2022-12-17T17:56:17;2.71;70.67
73688;SHT30;62257;48.376;-4.378;2022-12-17T17:58:45;2.66;70.51
73688;SHT30;62257;48.376;-4.378;2022-12-17T18:01:13;2.60;70.87
73688;SHT30;62257;48.376;-4.378;2022-12-17T18:03:39;2.56;70.57
73688;SHT30;62257;48.376;-4.378;2022-12-17T18:06:06;2.49;70.71
73688;SHT30;62257;48.376;-4.378;2022-12-17T18:08:36;2.42;70.70
73688;SHT30;62257;48.376;-4.378;2022-12-17T18:11:04;2.38;70.99
73688;SHT30;62257;48.376;-4.378;2022-12-17T18:13:31;2.38;70.89
73688;SHT30;62257;48.376;-4.378;2022-12-17T18:16:15;2.42;71.19
73688;SHT30;62257;48.376;-4.378;2022-12-17T18:18:41;2.46;70.83
73688;SHT30;62257;48.376;-4.378;2022-12-17T18:21:12;2.55;70.32